Time;durP1;ratioP1;P1;durP2;ratioP2;P2;SDS_P1;SDS_P2;PMS_P1;PMS_P2;Temp;Humidity;BMP_temperature;BMP_pressure;BME280_temperature;BME280_humidity;BME280_pressure;Samples;Min_cycle;Max_cycle;Signal;HPM_P1;HPM_P2
2023/11/15 00:01:47;;;;;;;9.02;3.28;;;17.00;96.70;;;;;;4937838;28;20515;-68
2023/11/15 00:04:19;;;;;;;7.35;2.80;;;17.00;96.70;;;;;;4926289;29;20061;-67
2023/11/15 00:06:50;;;;;;;11.80;3.85;;;17.00;96.70;;;;;;4932748;29;20052;-68
2023/11/15 00:09:18;;;;;;;8.50;2.70;;;17.00;96.70;;;;;;4932634;29;20043;-68
2023/11/15 00:11:49;;;;;;;10.05;2.90;;;17.00;96.70;;;;;;4926059;29;20043;-68
2023/11/15 00:14:17;;;;;;;5.53;2.83;;;17.00;96.70;;;;;;4932415;29;20074;-68
2023/11/15 00:16:47;;;;;;;10.43;3.28;;;17.00;96.70;;;;;;4932545;29;20452;-68
2023/11/15 00:19:17;;;;;;;8.68;3.13;;;17.00;96.70;;;;;;4925482;29;20052;-68
2023/11/15 00:21:45;;;;;;;6.47;2.67;;;17.00;96.70;;;;;;4930941;29;20377;-68
2023/11/15 00:24:14;;;;;;;7.45;2.75;;;17.00;96.70;;;;;;4931141;29;20078;-67
2023/11/15 00:26:43;;;;;;;8.00;2.88;;;17.00;96.70;;;;;;4931219;29;20715;-68
2023/11/15 00:29:12;;;;;;;8.52;3.05;;;17.00;96.70;;;;;;4926033;29;20059;-67
2023/11/15 00:31:40;;;;;;;6.40;2.50;;;17.00;96.70;;;;;;4927937;29;20099;-68
2023/11/15 00:34:10;;;;;;;8.43;2.83;;;17.00;96.70;;;;;;4932480;29;20052;-68
2023/11/15 00:36:43;;;;;;;9.85;3.25;;;16.90;96.70;;;;;;4931093;28;20040;-68
2023/11/15 00:39:12;;;;;;;8.27;2.63;;;16.90;96.70;;;;;;4927997;29;20058;-68
2023/11/15 00:41:42;;;;;;;8.85;2.80;;;16.90;96.70;;;;;;4931065;29;20040;-68
2023/11/15 00:44:14;;;;;;;7.28;2.67;;;16.90;96.70;;;;;;4928945;29;20056;-68
2023/11/15 00:46:44;;;;;;;7.47;3.05;;;17.00;96.70;;;;;;4931251;29;20683;-68
2023/11/15 00:49:15;;;;;;;9.27;2.97;;;16.90;96.70;;;;;;4929881;29;20056;-67
2023/11/15 00:51:43;;;;;;;8.07;3.40;;;16.90;96.70;;;;;;4934796;29;20558;-68
2023/11/15 00:54:14;;;;;;;10.88;3.97;;;16.90;96.70;;;;;;4935587;28;20048;-67
2023/11/15 00:56:43;;;;;;;10.63;3.92;;;16.90;96.70;;;;;;4930724;29;20048;-68
2023/11/15 00:59:12;;;;;;;7.28;3.42;;;16.90;96.70;;;;;;4930820;29;20094;-67
2023/11/15 01:01:41;;;;;;;8.77;3.53;;;16.90;96.70;;;;;;4929863;29;20052;-67
2023/11/15 01:04:11;;;;;;;7.18;3.35;;;16.90;96.70;;;;;;4930760;29;20317;-68
2023/11/15 01:06:41;;;;;;;9.68;3.25;;;16.90;96.70;;;;;;4929968;29;20134;-68
2023/11/15 01:09:10;;;;;;;6.40;2.90;;;16.90;96.70;;;;;;4930956;29;20065;-69
2023/11/15 01:11:39;;;;;;;11.48;3.33;;;16.80;96.70;;;;;;4929454;29;20083;-67
2023/11/15 01:14:08;;;;;;;8.27;2.65;;;16.80;96.70;;;;;;4928110;29;20044;-67
2023/11/15 01:16:37;;;;;;;10.45;3.13;;;16.80;96.70;;;;;;4929568;29;20051;-67
2023/11/15 01:19:06;;;;;;;6.53;2.35;;;16.80;96.70;;;;;;4928549;29;20040;-68
2023/11/15 01:21:35;;;;;;;9.10;2.97;;;16.80;96.70;;;;;;4930791;29;20132;-68
2023/11/15 01:24:06;;;;;;;9.80;3.50;;;16.80;96.70;;;;;;4930787;29;20047;-67
2023/11/15 01:26:35;;;;;;;10.60;3.55;;;16.80;96.70;;;;;;4930181;29;20047;-64
2023/11/15 01:29:03;;;;;;;6.95;2.90;;;16.80;96.70;;;;;;4930389;29;20052;-64
2023/11/15 01:31:32;;;;;;;10.57;3.20;;;16.70;96.70;;;;;;4930132;29;20040;-64
2023/11/15 01:34:00;;;;;;;8.52;3.08;;;16.80;96.70;;;;;;4929267;29;20043;-64
2023/11/15 01:36:29;;;;;;;6.85;3.20;;;16.70;96.70;;;;;;4919015;29;20062;-64
2023/11/15 01:38:57;;;;;;;7.20;3.05;;;16.80;96.70;;;;;;4929681;29;20040;-64
2023/11/15 01:41:27;;;;;;;7.63;3.10;;;16.70;96.70;;;;;;4930781;29;20067;-64
2023/11/15 01:43:55;;;;;;;7.38;3.15;;;16.70;96.70;;;;;;4930922;29;20071;-64
2023/11/15 01:46:24;;;;;;;8.02;2.55;;;16.70;96.70;;;;;;4924247;29;20043;-64
2023/11/15 01:48:53;;;;;;;7.72;3.00;;;16.70;96.70;;;;;;4929117;29;20576;-64
2023/11/15 01:51:21;;;;;;;7.40;2.90;;;16.70;96.70;;;;;;4938072;29;20488;-64
2023/11/15 01:53:50;;;;;;;8.70;3.22;;;16.70;96.70;;;;;;4929143;29;20059;-64
2023/11/15 01:56:19;;;;;;;8.85;3.25;;;16.70;96.70;;;;;;4929089;29;20051;-64
2023/11/15 01:58:50;;;;;;;10.35;3.00;;;16.70;96.70;;;;;;4929556;29;20040;-64
2023/11/15 02:01:20;;;;;;;5.47;2.70;;;16.70;96.70;;;;;;4928355;29;20043;-64
2023/11/15 02:03:49;;;;;;;9.88;2.88;;;16.70;96.70;;;;;;4930379;29;20361;-64
2023/11/15 02:06:18;;;;;;;8.48;2.78;;;16.70;96.70;;;;;;4928721;29;20056;-64
2023/11/15 02:08:47;;;;;;;9.10;3.13;;;16.70;96.70;;;;;;4928560;29;20242;-64
2023/11/15 02:11:15;;;;;;;9.35;2.78;;;16.70;96.70;;;;;;4929927;29;20047;-64
2023/11/15 02:13:45;;;;;;;7.65;3.17;;;16.70;96.70;;;;;;4929870;29;20040;-64
2023/11/15 02:16:15;;;;;;;6.53;3.15;;;16.80;96.70;;;;;;4929392;29;20074;-64
2023/11/15 02:18:45;;;;;;;10.38;2.92;;;16.80;96.70;;;;;;4927565;29;20052;-64
2023/11/15 02:21:14;;;;;;;6.47;2.80;;;16.80;96.70;;;;;;4930239;29;20139;-64
2023/11/15 02:23:45;;;;;;;5.80;3.05;;;16.80;96.70;;;;;;4930517;29;20566;-64
2023/11/15 02:26:14;;;;;;;8.15;2.95;;;16.80;96.70;;;;;;4928368;29;20047;-64
2023/11/15 02:28:42;;;;;;;10.20;2.92;;;16.80;96.70;;;;;;4935976;29;20055;-64
2023/11/15 02:31:11;;;;;;;6.47;2.80;;;16.80;96.70;;;;;;4927879;29;20048;-64
2023/11/15 02:33:40;;;;;;;6.65;2.83;;;16.80;96.70;;;;;;4921321;29;20591;-64
2023/11/15 02:36:09;;;;;;;8.38;3.38;;;16.80;96.70;;;;;;4933747;29;20040;-64
2023/11/15 02:38:38;;;;;;;6.93;2.58;;;16.80;96.70;;;;;;4928673;29;20072;-63
2023/11/15 02:41:09;;;;;;;6.72;3.10;;;16.80;96.70;;;;;;4929813;29;20048;-64
2023/11/15 02:43:38;;;;;;;7.85;2.88;;;16.80;96.70;;;;;;4929466;29;20055;-64
2023/11/15 02:46:06;;;;;;;10.38;2.90;;;16.90;96.70;;;;;;4929026;29;20048;-64
2023/11/15 02:48:34;;;;;;;7.65;2.63;;;16.80;96.70;;;;;;4930015;29;20055;-64
2023/11/15 02:51:03;;;;;;;12.02;2.70;;;16.80;96.70;;;;;;4929586;29;20127;-64
2023/11/15 02:53:32;;;;;;;8.13;2.72;;;16.80;96.70;;;;;;4933394;29;20066;-64
2023/11/15 02:56:01;;;;;;;8.25;2.58;;;16.80;96.70;;;;;;4932844;29;20046;-64
2023/11/15 02:58:31;;;;;;;6.88;2.38;;;16.80;96.70;;;;;;4931433;29;20051;-64
2023/11/15 03:01:00;;;;;;;8.52;1.90;;;16.90;96.70;;;;;;4932868;29;20044;-64
2023/11/15 03:03:29;;;;;;;8.38;2.22;;;16.90;96.70;;;;;;4930292;29;20139;-64
2023/11/15 03:05:58;;;;;;;9.57;2.95;;;16.90;96.70;;;;;;4934193;29;20055;-63
2023/11/15 03:08:27;;;;;;;4.75;1.80;;;16.90;96.70;;;;;;4933356;29;20047;-64
2023/11/15 03:10:56;;;;;;;8.80;2.40;;;16.90;96.70;;;;;;4932913;29;20134;-64
2023/11/15 03:13:24;;;;;;;8.60;2.40;;;16.90;96.70;;;;;;4933386;29;20059;-64
2023/11/15 03:15:55;;;;;;;9.18;2.70;;;17.00;96.70;;;;;;4931944;29;20082;-63
2023/11/15 03:18:24;;;;;;;15.30;2.40;;;17.10;96.70;;;;;;4933325;29;20054;-64
2023/11/15 03:20:53;;;;;;;10.23;2.35;;;17.10;96.70;;;;;;4932564;29;20102;-64
2023/11/15 03:23:21;;;;;;;8.35;2.30;;;17.10;96.70;;;;;;4931128;29;20052;-64
2023/11/15 03:25:50;;;;;;;9.90;2.20;;;17.20;96.70;;;;;;4932786;29;20048;-64
2023/11/15 03:28:19;;;;;;;6.35;2.00;;;17.20;96.70;;;;;;4931818;29;20052;-64
2023/11/15 03:30:47;;;;;;;10.60;3.25;;;17.20;96.70;;;;;;4928664;29;20058;-64
2023/11/15 03:33:17;;;;;;;6.03;2.40;;;17.20;96.70;;;;;;4932564;29;20123;-64
2023/11/15 03:35:46;;;;;;;8.25;2.22;;;17.20;96.70;;;;;;4930441;29;20066;-64
2023/11/15 03:38:15;;;;;;;9.77;2.50;;;17.30;96.70;;;;;;4932175;29;20071;-64
2023/11/15 03:40:44;;;;;;;8.15;2.28;;;17.30;96.70;;;;;;4935044;29;20085;-64
2023/11/15 03:43:12;;;;;;;6.80;1.80;;;17.30;96.70;;;;;;4928479;29;20043;-65
2023/11/15 03:45:41;;;;;;;10.43;2.40;;;17.30;96.70;;;;;;4931218;29;20118;-64
2023/11/15 03:48:09;;;;;;;10.60;3.13;;;17.30;96.70;;;;;;4932969;29;20048;-68
2023/11/15 03:50:40;;;;;;;8.18;2.20;;;17.20;96.70;;;;;;4930602;29;20516;-68
2023/11/15 03:53:09;;;;;;;9.23;2.47;;;17.20;96.70;;;;;;4931291;29;20051;-68
2023/11/15 03:55:37;;;;;;;8.00;2.67;;;17.20;96.70;;;;;;4931378;29;20103;-68
2023/11/15 03:58:06;;;;;;;9.80;2.30;;;17.20;96.70;;;;;;4931497;29;20047;-67
2023/11/15 04:00:34;;;;;;;8.57;1.95;;;17.20;96.70;;;;;;4931067;29;20043;-68
2023/11/15 04:03:03;;;;;;;5.88;2.00;;;17.20;96.70;;;;;;4931886;29;20036;-65
2023/11/15 04:05:32;;;;;;;7.22;2.03;;;17.20;96.70;;;;;;4932520;29;20075;-64
2023/11/15 04:08:02;;;;;;;9.05;2.22;;;17.20;96.70;;;;;;4932614;29;20458;-65
2023/11/15 04:10:31;;;;;;;6.20;2.15;;;17.20;96.70;;;;;;4932719;29;20050;-64
2023/11/15 04:12:59;;;;;;;7.82;2.55;;;17.10;96.70;;;;;;4932560;29;20052;-65
2023/11/15 04:15:28;;;;;;;7.57;2.40;;;17.10;96.70;;;;;;4931275;29;20055;-65
2023/11/15 04:17:56;;;;;;;8.07;2.60;;;17.10;96.70;;;;;;4932642;29;20131;-65
2023/11/15 04:20:27;;;;;;;7.10;2.55;;;17.10;96.70;;;;;;4932364;29;20135;-65
2023/11/15 04:22:57;;;;;;;8.77;2.42;;;17.10;96.70;;;;;;4932736;29;20043;-64
2023/11/15 04:25:26;;;;;;;6.70;2.40;;;17.10;96.70;;;;;;4931346;29;20086;-65
2023/11/15 04:27:55;;;;;;;10.00;2.58;;;17.10;96.70;;;;;;4932127;29;20048;-64
2023/11/15 04:30:26;;;;;;;8.13;2.67;;;17.10;96.70;;;;;;4931695;29;20139;-65
2023/11/15 04:32:54;;;;;;;8.30;2.60;;;17.10;96.70;;;;;;4928732;29;20062;-65
2023/11/15 04:35:23;;;;;;;11.88;3.08;;;17.10;96.70;;;;;;4933957;29;20507;-64
2023/11/15 04:37:51;;;;;;;9.93;3.00;;;17.10;96.70;;;;;;4932313;29;20040;-65
2023/11/15 04:40:20;;;;;;;11.18;3.08;;;17.10;96.70;;;;;;4931895;29;20126;-65
2023/11/15 04:42:50;;;;;;;10.57;3.25;;;17.10;96.70;;;;;;4931692;29;20052;-64
2023/11/15 04:45:19;;;;;;;7.68;2.80;;;17.10;96.70;;;;;;4931379;29;20058;-64
2023/11/15 04:47:47;;;;;;;10.55;3.47;;;17.10;96.70;;;;;;4931266;29;20400;-65
2023/11/15 04:50:16;;;;;;;11.18;3.58;;;17.10;96.70;;;;;;4931051;29;20050;-64
2023/11/15 04:52:44;;;;;;;12.95;3.55;;;17.10;96.70;;;;;;4932085;29;20054;-65
2023/11/15 04:55:13;;;;;;;12.68;3.85;;;17.10;96.70;;;;;;4934543;29;20078;-64
2023/11/15 04:57:41;;;;;;;9.13;3.30;;;17.10;96.70;;;;;;4930821;29;20058;-65
2023/11/15 05:00:13;;;;;;;10.32;3.03;;;17.10;96.70;;;;;;4931418;29;20051;-65
2023/11/15 05:02:43;;;;;;;11.07;3.00;;;17.10;96.70;;;;;;4931090;29;20040;-69
2023/11/15 05:05:11;;;;;;;9.02;2.85;;;17.20;96.70;;;;;;4930977;29;20724;-69
2023/11/15 05:07:39;;;;;;;9.77;2.78;;;17.20;96.70;;;;;;4930738;29;20047;-68
2023/11/15 05:10:09;;;;;;;9.65;2.85;;;17.20;96.70;;;;;;4929540;29;20047;-65
2023/11/15 05:12:38;;;;;;;10.10;3.08;;;17.20;96.70;;;;;;4927272;29;20044;-68
2023/11/15 05:15:07;;;;;;;10.18;3.22;;;17.20;96.70;;;;;;4930573;29;20428;-68
2023/11/15 05:17:37;;;;;;;12.52;3.05;;;17.20;96.70;;;;;;4928670;29;20058;-68
2023/11/15 05:20:07;;;;;;;11.90;3.17;;;17.20;96.70;;;;;;4930236;29;20043;-68
2023/11/15 05:22:39;;;;;;;6.18;2.33;;;17.20;96.70;;;;;;4924121;29;20043;-64
2023/11/15 05:25:08;;;;;;;9.02;2.33;;;17.20;96.70;;;;;;4931003;29;20059;-65
2023/11/15 05:27:37;;;;;;;13.45;2.58;;;17.20;96.70;;;;;;4930385;29;20046;-65
2023/11/15 05:30:07;;;;;;;9.68;2.67;;;17.20;96.70;;;;;;4935938;29;20055;-64
2023/11/15 05:32:37;;;;;;;12.05;2.70;;;17.20;96.70;;;;;;4930026;29;20066;-64
2023/11/15 05:35:06;;;;;;;9.68;3.15;;;17.20;96.70;;;;;;4923190;29;20692;-64
2023/11/15 05:37:35;;;;;;;7.97;2.40;;;17.20;96.70;;;;;;4930475;29;20066;-68
2023/11/15 05:40:05;;;;;;;8.15;2.60;;;17.20;96.70;;;;;;4930961;29;20040;-68
2023/11/15 05:42:33;;;;;;;11.65;3.38;;;17.20;96.70;;;;;;4929296;29;20072;-68
2023/11/15 05:45:03;;;;;;;7.93;2.47;;;17.20;96.70;;;;;;4930118;29;20040;-68
2023/11/15 05:47:31;;;;;;;11.02;2.72;;;17.20;96.70;;;;;;4923089;29;20122;-68
2023/11/15 05:50:02;;;;;;;13.57;3.70;;;17.20;96.70;;;;;;4929650;29;20032;-68
2023/11/15 05:52:32;;;;;;;9.65;2.70;;;17.20;96.70;;;;;;4932839;29;20046;-66
2023/11/15 05:55:00;;;;;;;12.73;3.47;;;17.20;96.70;;;;;;4930567;29;20484;-66
2023/11/15 05:57:29;;;;;;;12.20;3.33;;;17.30;96.70;;;;;;4930534;29;20742;-66
2023/11/15 05:59:57;;;;;;;10.07;3.10;;;17.30;96.70;;;;;;4930323;29;20139;-67
2023/11/15 06:02:25;;;;;;;12.57;3.25;;;17.30;96.70;;;;;;4930786;29;20404;-67
2023/11/15 06:04:56;;;;;;;11.13;3.70;;;17.20;96.70;;;;;;4930916;29;20139;-66
2023/11/15 06:07:27;;;;;;;8.93;2.78;;;17.20;96.70;;;;;;4930986;29;20524;-68
2023/11/15 06:09:55;;;;;;;12.70;3.38;;;17.20;96.70;;;;;;4930712;29;20163;-69
2023/11/15 06:12:24;;;;;;;8.45;2.83;;;17.20;96.70;;;;;;4930020;29;20027;-68
2023/11/15 06:14:53;;;;;;;11.27;3.63;;;17.20;96.70;;;;;;4927745;29;20050;-68
2023/11/15 06:17:25;;;;;;;12.68;4.10;;;17.20;96.70;;;;;;4922055;29;20056;-68
2023/11/15 06:19:54;;;;;;;15.90;3.42;;;17.20;96.70;;;;;;4928357;29;20047;-68
2023/11/15 06:22:34;;;;;;;16.73;3.65;;;17.20;96.70;;;;;;4926991;29;20115;-68
2023/11/15 06:25:06;;;;;;;16.83;4.20;;;17.20;96.70;;;;;;4930000;29;20048;-68
2023/11/15 06:27:35;;;;;;;16.30;4.50;;;17.20;96.70;;;;;;4927494;29;20444;-68
2023/11/15 06:30:04;;;;;;;17.40;4.25;;;17.30;96.70;;;;;;4932465;28;20062;-68
2023/11/15 06:32:34;;;;;;;17.98;3.67;;;17.30;96.70;;;;;;4928958;29;20457;-68
2023/11/15 06:35:03;;;;;;;14.70;4.18;;;17.30;96.70;;;;;;4922332;29;20043;-64
2023/11/15 06:37:34;;;;;;;20.70;5.03;;;17.30;96.70;;;;;;4930198;29;20048;-69
2023/11/15 06:40:07;;;;;;;18.13;4.95;;;17.30;96.70;;;;;;4931649;29;20044;-74
2023/11/15 06:42:36;;;;;;;18.98;5.35;;;17.40;96.70;;;;;;4931360;29;20056;-71
2023/11/15 06:45:06;;;;;;;22.50;5.00;;;17.50;96.70;;;;;;4930346;29;20043;-71
2023/11/15 06:47:35;;;;;;;24.77;5.38;;;17.50;96.70;;;;;;4929751;29;20052;-71
2023/11/15 06:50:04;;;;;;;23.30;5.30;;;17.50;96.70;;;;;;4927603;29;20032;-71
2023/11/15 06:52:37;;;;;;;22.40;5.85;;;17.60;96.70;;;;;;4930634;29;20055;-71
2023/11/15 06:55:09;;;;;;;52.08;26.98;;;17.60;96.70;;;;;;4930932;29;20078;-70
2023/11/15 06:57:40;;;;;;;31.02;16.35;;;17.60;96.70;;;;;;4937666;29;20066;-71
2023/11/15 07:00:13;;;;;;;23.77;9.07;;;17.60;96.70;;;;;;4928295;29;20512;-71
2023/11/15 07:02:42;;;;;;;24.55;7.13;;;17.60;96.70;;;;;;4931268;29;20047;-70
2023/11/15 07:05:13;;;;;;;23.17;7.05;;;17.60;96.70;;;;;;4929235;29;20417;-70
2023/11/15 07:07:43;;;;;;;22.20;5.72;;;17.60;96.70;;;;;;4922088;29;20042;-70
2023/11/15 07:10:15;;;;;;;21.77;6.13;;;17.60;96.70;;;;;;4930288;29;20040;-70
2023/11/15 07:12:46;;;;;;;22.23;5.85;;;17.60;96.70;;;;;;4928949;29;20039;-70
2023/11/15 07:15:16;;;;;;;22.60;6.25;;;17.60;96.70;;;;;;4939218;29;20403;-68
2023/11/15 07:17:45;;;;;;;21.52;5.65;;;17.60;96.70;;;;;;4922456;29;20420;-68
2023/11/15 07:20:17;;;;;;;19.60;5.10;;;17.60;96.70;;;;;;4928099;29;20071;-67
2023/11/15 07:22:47;;;;;;;22.10;5.22;;;17.60;96.70;;;;;;4921347;29;20043;-66
2023/11/15 07:25:18;;;;;;;21.48;5.75;;;17.70;96.70;;;;;;4929024;29;20067;-66
2023/11/15 07:27:46;;;;;;;23.33;5.85;;;17.70;96.70;;;;;;4928425;29;20051;-66
2023/11/15 07:30:15;;;;;;;18.55;5.20;;;17.70;96.70;;;;;;4934983;29;20138;-67
2023/11/15 07:32:43;;;;;;;25.33;5.68;;;17.70;96.70;;;;;;4929062;29;20079;-66
2023/11/15 07:35:12;;;;;;;20.48;5.43;;;17.70;96.70;;;;;;4930263;29;20036;-66
2023/11/15 07:37:41;;;;;;;24.20;5.57;;;17.70;96.70;;;;;;4924751;29;20051;-66
2023/11/15 07:40:12;;;;;;;27.55;5.63;;;17.70;96.70;;;;;;4937750;29;20043;-65
2023/11/15 07:42:41;;;;;;;22.00;5.57;;;17.80;96.70;;;;;;4935581;28;20035;-67
2023/11/15 07:45:35;;;;;;;21.15;6.03;;;17.80;96.70;;;;;;4932967;29;20160;-69
2023/11/15 07:48:04;;;;;;;26.55;6.47;;;17.80;96.70;;;;;;4932509;29;20052;-69
2023/11/15 07:50:35;;;;;;;17.80;6.20;;;17.80;96.70;;;;;;4932393;29;20054;-70
2023/11/15 07:53:04;;;;;;;17.85;5.28;;;17.90;96.70;;;;;;4933752;29;20052;-72
2023/11/15 07:55:35;;;;;;;22.85;5.50;;;17.90;96.70;;;;;;4932497;29;20135;-67
2023/11/15 07:58:04;;;;;;;17.35;5.15;;;17.90;96.70;;;;;;4933075;29;20071;-66
2023/11/15 08:00:35;;;;;;;20.83;5.18;;;18.00;96.70;;;;;;4932273;29;20062;-67
2023/11/15 08:03:04;;;;;;;16.15;4.32;;;18.00;96.70;;;;;;4937513;29;20044;-67
2023/11/15 08:05:33;;;;;;;26.35;6.07;;;18.10;96.70;;;;;;4932090;29;20590;-67
2023/11/15 08:08:01;;;;;;;27.65;6.97;;;18.10;96.70;;;;;;4932257;28;20048;-66
2023/11/15 08:10:37;;;;;;;24.88;7.57;;;18.10;96.70;;;;;;4932039;29;20035;-67
2023/11/15 08:13:06;;;;;;;34.50;9.00;;;18.10;96.70;;;;;;4932630;29;20054;-66
2023/11/15 08:15:35;;;;;;;26.73;7.70;;;18.10;96.70;;;;;;4933867;29;20431;-66
2023/11/15 08:18:04;;;;;;;30.13;7.47;;;18.10;96.70;;;;;;4932869;28;20664;-69
2023/11/15 08:20:32;;;;;;;25.50;7.28;;;18.20;96.70;;;;;;4932026;29;20051;-70
2023/11/15 08:23:02;;;;;;;25.85;7.30;;;18.30;96.70;;;;;;4940723;29;20055;-70
2023/11/15 08:25:32;;;;;;;23.73;6.07;;;18.40;96.70;;;;;;4932685;29;20515;-69
2023/11/15 08:28:02;;;;;;;22.90;6.85;;;18.50;96.70;;;;;;4921026;29;20066;-69
2023/11/15 08:30:31;;;;;;;19.60;5.75;;;18.60;96.70;;;;;;4939437;29;20063;-64
2023/11/15 08:33:00;;;;;;;22.45;5.97;;;18.60;96.70;;;;;;4932066;29;20131;-66
2023/11/15 08:35:28;;;;;;;22.85;5.75;;;18.70;96.70;;;;;;4940618;29;20396;-70
2023/11/15 08:37:58;;;;;;;23.85;6.53;;;18.80;96.70;;;;;;4931299;29;20047;-71
2023/11/15 08:40:26;;;;;;;23.70;6.00;;;18.90;96.70;;;;;;4932313;29;20079;-71
2023/11/15 08:42:57;;;;;;;23.85;7.05;;;19.00;96.70;;;;;;4932415;29;20492;-71
2023/11/15 08:45:27;;;;;;;38.33;15.18;;;19.00;96.70;;;;;;4935850;29;20050;-71
2023/11/15 08:47:57;;;;;;;29.85;13.23;;;19.10;96.70;;;;;;4934263;29;20643;-71
2023/11/15 08:50:27;;;;;;;33.40;12.63;;;19.20;96.70;;;;;;4931993;29;20043;-71
2023/11/15 08:52:56;;;;;;;24.95;8.48;;;19.30;96.70;;;;;;4932032;29;20038;-70
2023/11/15 08:55:24;;;;;;;25.50;9.40;;;19.30;96.70;;;;;;4932157;29;20151;-70
2023/11/15 08:57:53;;;;;;;31.73;9.55;;;19.30;96.70;;;;;;4931270;29;20040;-70
2023/11/15 09:00:24;;;;;;;21.98;6.88;;;19.40;96.70;;;;;;4931253;29;20067;-67
2023/11/15 09:02:54;;;;;;;18.02;5.38;;;19.50;96.70;;;;;;4935864;29;20047;-67
2023/11/15 09:05:24;;;;;;;17.02;4.65;;;19.60;96.70;;;;;;4934321;28;20099;-66
2023/11/15 09:07:53;;;;;;;22.17;7.32;;;19.70;96.70;;;;;;4931242;29;20507;-67
2023/11/15 09:10:22;;;;;;;18.35;5.30;;;19.80;96.70;;;;;;4931147;29;20043;-67
2023/11/15 09:12:52;;;;;;;16.95;4.35;;;19.80;96.70;;;;;;4928699;29;20075;-67
2023/11/15 09:15:22;;;;;;;13.18;3.75;;;19.90;96.70;;;;;;4925661;29;20133;-67
2023/11/15 09:17:51;;;;;;;20.33;4.47;;;19.90;96.70;;;;;;4927160;29;20047;-66
2023/11/15 09:20:26;;;;;;;18.15;4.22;;;19.90;96.70;;;;;;4930994;29;20043;-66
2023/11/15 09:22:57;;;;;;;12.98;3.80;;;20.00;96.70;;;;;;4923835;29;20671;-67
2023/11/15 09:25:28;;;;;;;17.70;4.78;;;20.10;96.70;;;;;;4931352;29;20059;-66
2023/11/15 09:27:59;;;;;;;20.23;4.28;;;20.20;96.70;;;;;;4930789;29;20093;-67
2023/11/15 09:30:30;;;;;;;17.48;3.92;;;20.10;96.70;;;;;;4931004;29;20527;-67
2023/11/15 09:33:05;;;;;;;13.25;3.80;;;20.10;96.70;;;;;;4931376;29;20075;-66
2023/11/15 09:35:36;;;;;;;19.00;3.92;;;20.20;96.70;;;;;;4934125;29;20070;-65
2023/11/15 09:38:14;;;;;;;14.20;3.28;;;20.20;96.70;;;;;;4930686;29;20035;-66
2023/11/15 09:40:43;;;;;;;16.23;3.85;;;20.30;96.70;;;;;;4930732;29;20062;-66
2023/11/15 09:43:12;;;;;;;18.85;3.53;;;20.30;96.70;;;;;;4930623;29;20058;-67
2023/11/15 09:45:41;;;;;;;15.25;3.28;;;20.40;96.70;;;;;;4930686;29;20051;-66
2023/11/15 09:48:11;;;;;;;13.05;2.97;;;20.40;96.70;;;;;;4930690;29;20423;-67
2023/11/15 09:50:41;;;;;;;12.48;3.60;;;20.50;96.70;;;;;;4930658;29;20071;-67
2023/11/15 09:53:11;;;;;;;15.90;4.25;;;20.60;96.70;;;;;;4931210;29;20187;-67
2023/11/15 09:55:40;;;;;;;11.35;3.00;;;20.70;96.70;;;;;;4930062;29;20515;-67
2023/11/15 09:58:11;;;;;;;19.63;3.85;;;20.80;96.70;;;;;;4937738;28;20058;-66
2023/11/15 10:00:40;;;;;;;18.58;5.80;;;20.90;96.70;;;;;;4922122;29;20051;-67
2023/11/15 10:03:08;;;;;;;21.83;4.70;;;21.00;96.70;;;;;;4930525;29;20035;-67
2023/11/15 10:05:39;;;;;;;16.15;3.90;;;21.10;96.70;;;;;;4938961;29;20054;-65
2023/11/15 10:08:15;;;;;;;14.02;3.85;;;21.00;96.70;;;;;;4929928;29;20604;-66
2023/11/15 10:10:47;;;;;;;13.50;3.10;;;20.90;96.70;;;;;;4930301;29;20060;-66
2023/11/15 10:13:18;;;;;;;17.60;3.90;;;20.70;96.70;;;;;;4929877;29;20046;-66
2023/11/15 10:15:46;;;;;;;18.98;3.63;;;20.60;96.70;;;;;;4930359;29;20508;-66
2023/11/15 10:18:28;;;;;;;20.98;4.00;;;20.50;96.70;;;;;;4928769;29;20570;-66
2023/11/15 10:21:07;;;;;;;16.48;4.10;;;20.40;96.70;;;;;;4930754;29;20039;-66
2023/11/15 10:23:37;;;;;;;16.50;3.35;;;20.40;96.70;;;;;;4930202;29;20046;-66
2023/11/15 10:26:09;;;;;;;17.45;3.45;;;20.60;96.70;;;;;;4929790;29;20407;-66
2023/11/15 10:28:39;;;;;;;14.77;3.42;;;20.80;96.70;;;;;;4930833;28;20070;-65
2023/11/15 10:31:18;;;;;;;14.68;3.58;;;20.90;96.70;;;;;;4936110;29;20068;-65
2023/11/15 10:33:50;;;;;;;17.42;3.80;;;20.80;96.70;;;;;;4930396;29;20044;-66
2023/11/15 10:36:21;;;;;;;14.98;3.58;;;20.90;96.70;;;;;;4928578;29;21017;-66
2023/11/15 10:38:55;;;;;;;12.80;3.38;;;21.10;96.70;;;;;;4930172;29;20512;-66
2023/11/15 10:41:25;;;;;;;18.38;3.90;;;21.20;96.70;;;;;;4931627;29;20198;-66
2023/11/15 10:43:54;;;;;;;14.30;3.33;;;21.30;96.70;;;;;;4933759;28;20071;-66
2023/11/15 10:46:31;;;;;;;15.18;3.75;;;21.40;96.70;;;;;;4930209;29;20134;-66
2023/11/15 10:49:00;;;;;;;;;;;21.60;96.70;;;;;;4929984;29;20071;-65
2023/11/15 10:51:40;;;;;;;15.52;3.63;;;21.80;96.70;;;;;;4930115;29;19979;-66
2023/11/15 10:54:13;;;;;;;11.95;3.15;;;21.90;96.70;;;;;;4929643;29;20039;-65
2023/11/15 10:56:43;;;;;;;14.18;3.72;;;21.80;96.70;;;;;;4921912;29;20054;-66
2023/11/15 10:59:13;;;;;;;14.27;3.80;;;21.80;96.70;;;;;;4929541;29;20047;-66
2023/11/15 11:01:42;;;;;;;19.35;3.42;;;21.70;96.70;;;;;;4929907;29;20048;-65
2023/11/15 11:04:12;;;;;;;18.40;4.68;;;21.60;96.70;;;;;;4929818;29;20361;-66
2023/11/15 11:06:47;;;;;;;18.83;4.55;;;21.50;96.70;;;;;;4930051;29;20147;-65
2023/11/15 11:09:26;;;;;;;13.10;3.08;;;21.40;96.70;;;;;;4930523;29;20758;-66
2023/11/15 11:12:00;;;;;;;12.13;2.63;;;21.30;96.70;;;;;;4926622;29;20047;-66
2023/11/15 11:14:30;;;;;;;15.80;2.90;;;21.30;96.70;;;;;;4934087;29;20048;-66
2023/11/15 11:16:59;;;;;;;17.23;4.03;;;21.30;96.70;;;;;;4925927;29;20123;-66
2023/11/15 11:19:28;;;;;;;15.57;3.35;;;21.20;96.70;;;;;;4933265;29;20036;-65
2023/11/15 11:22:11;;;;;;;13.90;3.60;;;21.20;96.70;;;;;;4933991;29;20542;-66
2023/11/15 11:25:06;;;;;;;14.18;3.88;;;21.00;96.70;;;;;;4933609;29;20048;-65
2023/11/15 11:27:36;;;;;;;14.95;3.45;;;20.90;96.70;;;;;;4932325;29;20070;-66
2023/11/15 11:30:19;;;;;;;18.45;3.70;;;20.80;96.70;;;;;;4934225;29;20068;-67
2023/11/15 11:32:49;;;;;;;12.25;3.50;;;20.80;96.70;;;;;;4933110;29;20044;-66
2023/11/15 11:35:30;;;;;;;16.52;3.65;;;20.70;96.70;;;;;;4930191;29;20068;-66
2023/11/15 11:38:03;;;;;;;15.35;4.30;;;20.60;96.70;;;;;;4920756;29;21019;-65
2023/11/15 11:40:38;;;;;;;20.27;4.22;;;20.50;96.70;;;;;;4937644;28;20455;-65
2023/11/15 11:43:29;;;;;;;12.90;3.22;;;20.50;96.70;;;;;;4933122;29;20062;-68
2023/11/15 11:46:13;;;;;;;14.25;3.15;;;20.60;96.70;;;;;;4933544;29;20062;-69
2023/11/15 11:48:42;;;;;;;17.42;3.63;;;20.90;96.70;;;;;;4931416;29;20048;-70
2023/11/15 11:51:10;;;;;;;14.30;3.83;;;21.10;96.70;;;;;;4930848;29;20392;-69
2023/11/15 11:53:39;;;;;;;13.98;3.75;;;21.20;96.70;;;;;;4932614;29;20042;-69
2023/11/15 11:56:10;;;;;;;17.10;4.00;;;21.30;96.70;;;;;;4932645;29;20048;-69
2023/11/15 11:58:40;;;;;;;13.80;3.38;;;21.40;96.70;;;;;;4934831;29;20059;-68
2023/11/15 12:01:11;;;;;;;19.88;3.78;;;21.50;96.70;;;;;;4924217;29;20040;-69
2023/11/15 12:03:46;;;;;;;12.10;3.70;;;21.50;96.70;;;;;;4932445;29;20481;-68
2023/11/15 12:06:15;;;;;;;20.02;4.22;;;21.60;96.70;;;;;;4930095;29;20459;-71
2023/11/15 12:08:53;;;;;;;12.23;3.40;;;21.70;96.70;;;;;;4926953;29;20052;-71
2023/11/15 12:11:23;;;;;;;14.52;3.53;;;21.70;96.70;;;;;;4930219;29;20052;-73
2023/11/15 12:13:53;;;;;;;14.80;3.75;;;21.80;96.70;;;;;;4932856;29;20048;-73
2023/11/15 12:16:23;;;;;;;15.73;4.18;;;21.90;96.70;;;;;;4933070;29;20107;-72
2023/11/15 12:19:03;;;;;;;14.77;3.72;;;22.10;96.70;;;;;;4938680;28;20521;-71
2023/11/15 12:21:33;;;;;;;12.20;3.40;;;22.30;96.70;;;;;;4929105;29;20504;-71
2023/11/15 12:24:05;;;;;;;13.88;4.45;;;22.30;96.70;;;;;;4926509;29;20056;-71
2023/11/15 12:26:46;;;;;;;15.07;4.05;;;22.10;96.70;;;;;;4932348;29;20111;-70
2023/11/15 12:29:20;;;;;;;12.75;3.70;;;22.10;96.70;;;;;;4935365;29;20138;-83
2023/11/15 12:31:50;;;;;;;12.60;3.30;;;22.20;96.70;;;;;;4942270;29;20079;-70
2023/11/15 12:34:20;;;;;;;14.20;3.60;;;22.20;96.70;;;;;;4927310;29;20051;-70
2023/11/15 12:36:50;;;;;;;14.40;4.25;;;22.20;96.70;;;;;;4918435;29;20119;-70
2023/11/15 12:39:21;;;;;;;16.58;3.63;;;22.30;96.70;;;;;;4929147;29;20400;-71
2023/11/15 12:41:52;;;;;;;14.18;3.90;;;22.30;96.70;;;;;;4932016;29;20044;-71
2023/11/15 12:44:22;;;;;;;14.38;3.97;;;22.30;96.70;;;;;;4930698;29;20404;-70
2023/11/15 12:46:51;;;;;;;12.48;3.67;;;22.40;96.70;;;;;;4936726;29;20043;-69
2023/11/15 12:49:24;;;;;;;11.18;3.50;;;22.40;96.70;;;;;;4930826;29;20056;-70
2023/11/15 12:51:53;;;;;;;11.05;3.75;;;22.40;96.70;;;;;;4929297;29;20106;-69
2023/11/15 12:54:22;;;;;;;15.30;4.15;;;22.40;96.70;;;;;;4930693;29;20457;-69
2023/11/15 12:57:12;;;;;;;13.88;3.53;;;22.40;96.70;;;;;;4930229;29;20070;-69